Terminal Aerodrome Forecast
Issued by NWS

Home | Current Version | Previous Version | Graphics & Text | Print | Product List | Glossary On
Versions: 1 2 3 4 5 6 7 8 9 10 11 12 13 14 15 16 17
000
FTUS43 KGRB 291900 AAA
TAFATW
TAF AMD
KATW 291918Z 2919/3018 21019G27KT P6SM SCT006 OVC015
      TEMPO 2920/2923 2SM -RADZ BR OVC006
     FM292300 28022G32KT P6SM BKN015 BKN028
     FM300300 27019G27KT P6SM SCT050
     FM300800 27008KT P6SM SKC=

USA.gov is the U.S. government's official web portal to all federal, state and local government web resources and services.